Time;durP1;ratioP1;P1;durP2;ratioP2;P2;SDS_P1;SDS_P2;PMS_P1;PMS_P2;Temp;Humidity;BMP_temperature;BMP_pressure;BME280_temperature;BME280_humidity;BME280_pressure;Samples;Min_cycle;Max_cycle;Signal;HPM_P1;HPM_P2
2022/10/29 07:13:42;;;;;;;9.17;5.47;;;;;;;;;;12309783;22;15410550;-85
2022/10/29 07:24:52;;;;;;;8.57;5.45;;;;;;;;;;12928958;23;20016;-85
2022/10/29 07:41:25;;;;;;;15.27;5.70;;;;;;;;;;12928801;23;20004;-88
2022/10/29 07:47:13;;;;;;;12.48;6.70;;;;;;;;;;12616721;23;20022;-86
2022/10/29 07:52:57;;;;;;;11.60;6.53;;;;;;;;;;12555810;23;20078;-86
2022/10/29 08:21:14;;;;;;;16.63;7.95;;;;;;;;;;12684218;23;20060;-85
2022/10/29 08:32:30;;;;;;;15.55;7.78;;;;;;;;;;12933289;23;20000;-89
2022/10/29 08:37:32;;;;;;;15.77;7.53;;;;;;;;;;12934857;23;20007;-85
2022/10/29 08:42:53;;;;;;;13.18;7.20;;;;;;;;;;12910533;23;20056;-89
2022/10/29 08:48:35;;;;;;;12.05;6.97;;;;;;;;;;12852380;23;20021;-90
2022/10/29 08:54:01;;;;;;;13.35;6.72;;;;;;;;;;12805702;23;20068;-88
2022/10/29 08:59:43;;;;;;;11.80;6.95;;;;;;;;;;12723295;23;20009;-88
2022/10/29 09:27:52;;;;;;;10.65;6.43;;;;;;;;;;13008748;22;20019;-88
2022/10/29 09:33:18;;;;;;;15.70;7.22;;;;;;;;;;12988592;22;20018;-86
2022/10/29 09:44:26;;;;;;;16.60;7.85;;;;;;;;;;12938169;22;20023;-90
2022/10/29 10:01:08;;;;;;;14.60;6.25;;;;;;;;;;13023986;22;20073;-87
2022/10/29 10:06:13;;;;;;;17.58;9.18;;;;;;;;;;12994418;22;20011;-87
2022/10/29 10:11:19;;;;;;;14.45;7.15;;;;;;;;;;12996968;22;20003;-86
2022/10/29 10:16:39;;;;;;;15.35;6.40;;;;;;;;;;12973051;22;20011;-88
2022/10/29 10:27:45;;;;;;;13.13;6.40;;;;;;;;;;13004425;22;20007;-89
2022/10/29 10:32:46;;;;;;;11.57;6.10;;;;;;;;;;12971637;22;20003;-86
2022/10/29 10:37:47;;;;;;;14.18;6.35;;;;;;;;;;12963811;22;20436;-88
2022/10/29 10:42:48;;;;;;;11.63;5.82;;;;;;;;;;12966086;22;20075;-87
2022/10/29 10:47:54;;;;;;;12.85;6.47;;;;;;;;;;12965769;22;20034;-87
2022/10/29 10:53:01;;;;;;;10.52;5.72;;;;;;;;;;12966255;22;20054;-87
2022/10/29 10:58:06;;;;;;;15.18;6.10;;;;;;;;;;12965291;22;20020;-88
2022/10/29 11:03:14;;;;;;;8.60;5.32;;;;;;;;;;12969589;22;20354;-86
2022/10/29 11:08:22;;;;;;;12.48;4.85;;;;;;;;;;12991735;22;19907;-86
2022/10/29 12:35:45;;;;;;;11.77;4.88;;;;;;;;;;13026869;22;20023;-82
2022/10/29 12:40:56;;;;;;;9.38;4.60;;;;;;;;;;13069694;22;20061;-83
2022/10/29 12:46:00;;;;;;;12.57;5.43;;;;;;;;;;13063541;22;20008;-83
2022/10/29 12:51:25;;;;;;;12.25;4.55;;;;;;;;;;13055581;22;20087;-82
2022/10/29 12:56:27;;;;;;;11.48;5.32;;;;;;;;;;13028853;22;20331;-82
2022/10/29 13:01:28;;;;;;;13.20;4.50;;;;;;;;;;13024597;22;20037;-83
2022/10/29 13:06:41;;;;;;;12.23;4.78;;;;;;;;;;13025558;22;20042;-83
2022/10/29 13:11:59;;;;;;;8.27;4.28;;;;;;;;;;13024301;22;20018;-83
2022/10/29 13:17:01;;;;;;;13.68;4.60;;;;;;;;;;13025622;22;20008;-83
2022/10/29 13:22:19;;;;;;;12.10;4.85;;;;;;;;;;13022797;22;20003;-82
2022/10/29 13:27:30;;;;;;;15.65;4.80;;;;;;;;;;13023794;22;20059;-85
2022/10/29 13:32:46;;;;;;;11.35;4.50;;;;;;;;;;13024724;22;20027;-82
2022/10/29 13:38:28;;;;;;;12.05;5.00;;;;;;;;;;13002130;22;20011;-82
2022/10/29 13:43:30;;;;;;;13.38;6.28;;;;;;;;;;12973198;22;20014;-82
2022/10/29 13:48:38;;;;;;;14.18;6.88;;;;;;;;;;13023021;22;20007;-82
2022/10/29 13:54:05;;;;;;;12.73;4.72;;;;;;;;;;13023217;22;20027;-83
2022/10/29 13:59:20;;;;;;;11.80;4.85;;;;;;;;;;12995142;22;20027;-83
2022/10/29 14:04:26;;;;;;;12.88;4.72;;;;;;;;;;13025188;22;20003;-83
2022/10/29 14:09:48;;;;;;;9.77;4.38;;;;;;;;;;13024772;22;20007;-83
2022/10/29 14:14:53;;;;;;;10.95;4.55;;;;;;;;;;13024455;22;20008;-84
2022/10/29 14:19:54;;;;;;;10.35;4.68;;;;;;;;;;13027556;22;20000;-83
2022/10/29 14:24:57;;;;;;;12.77;4.68;;;;;;;;;;13032284;22;20046;-83
2022/10/29 14:30:11;;;;;;;8.90;4.43;;;;;;;;;;13035502;22;20015;-82
2022/10/29 14:35:20;;;;;;;12.23;4.15;;;;;;;;;;13056361;22;20073;-83
2022/10/29 14:40:22;;;;;;;14.18;4.82;;;;;;;;;;13035960;22;20018;-83
2022/10/29 14:45:46;;;;;;;10.93;4.75;;;;;;;;;;13010287;22;20004;-83
2022/10/29 14:50:48;;;;;;;10.10;4.50;;;;;;;;;;13037688;22;20416;-83
2022/10/29 14:55:50;;;;;;;10.70;5.90;;;;;;;;;;13036804;22;20004;-84
2022/10/29 15:00:58;;;;;;;11.43;5.20;;;;;;;;;;13025939;22;20007;-84
2022/10/29 15:06:14;;;;;;;10.15;5.03;;;;;;;;;;13037125;22;20029;-84
2022/10/29 15:11:42;;;;;;;20.98;12.57;;;;;;;;;;13033158;22;20004;-83
2022/10/29 15:16:46;;;;;;;17.58;8.80;;;;;;;;;;13008582;22;20027;-83
2022/10/29 15:21:48;;;;;;;13.07;8.05;;;;;;;;;;13029365;22;20003;-83
2022/10/29 15:26:57;;;;;;;9.63;6.15;;;;;;;;;;13003074;22;20000;-83
2022/10/29 15:31:58;;;;;;;12.30;6.60;;;;;;;;;;13032851;22;20010;-83
2022/10/29 15:37:20;;;;;;;13.40;7.60;;;;;;;;;;13030417;22;20254;-83
2022/10/29 15:42:44;;;;;;;14.20;9.60;;;;;;;;;;12919990;23;20004;-83
2022/10/29 15:47:48;;;;;;;16.95;11.25;;;;;;;;;;12914434;23;20047;-84
2022/10/29 15:52:57;;;;;;;12.70;8.52;;;;;;;;;;12912977;23;20005;-84
2022/10/29 15:58:00;;;;;;;10.57;6.45;;;;;;;;;;12917057;23;19996;-83
2022/10/29 16:03:47;;;;;;;13.13;7.20;;;;;;;;;;12912314;23;20121;-83
2022/10/29 16:08:58;;;;;;;9.38;6.47;;;;;;;;;;12906399;23;20356;-83
2022/10/29 16:13:59;;;;;;;12.68;8.15;;;;;;;;;;12916455;23;20008;-83
2022/10/29 16:19:00;;;;;;;14.43;9.93;;;;;;;;;;12916262;23;20000;-83
2022/10/29 16:24:05;;;;;;;25.85;19.52;;;;;;;;;;12940072;22;19988;-82
2022/10/29 16:29:09;;;;;;;24.58;15.55;;;;;;;;;;12915681;23;20015;-83
2022/10/29 16:34:15;;;;;;;23.88;14.85;;;;;;;;;;12914722;23;20013;-82
2022/10/29 16:39:33;;;;;;;20.67;14.25;;;;;;;;;;12965608;22;20097;-82
2022/10/29 16:44:44;;;;;;;28.00;20.77;;;;;;;;;;13011670;22;20412;-82
2022/10/29 16:49:47;;;;;;;20.25;14.38;;;;;;;;;;13009007;22;20008;-82
2022/10/29 16:54:48;;;;;;;25.60;17.08;;;;;;;;;;13000609;22;20027;-82
2022/10/29 17:00:12;;;;;;;12.70;9.77;;;;;;;;;;12998508;22;20000;-82
2022/10/29 17:05:37;;;;;;;17.90;11.85;;;;;;;;;;12806107;23;20020;-84
2022/10/29 17:10:42;;;;;;;15.43;10.05;;;;;;;;;;12779539;23;20024;-83
2022/10/29 17:15:46;;;;;;;11.73;9.45;;;;;;;;;;12782637;23;20009;-83
2022/10/29 17:21:06;;;;;;;11.77;8.50;;;;;;;;;;12780290;23;20005;-82
2022/10/29 17:26:07;;;;;;;11.88;8.43;;;;;;;;;;12970133;22;20008;-82
2022/10/29 17:31:20;;;;;;;11.93;8.05;;;;;;;;;;13023738;22;20011;-83
2022/10/29 17:36:21;;;;;;;10.93;7.22;;;;;;;;;;13023684;22;19999;-83
2022/10/29 17:41:28;;;;;;;13.85;9.07;;;;;;;;;;13026202;22;20020;-83
2022/10/29 17:46:30;;;;;;;10.27;7.50;;;;;;;;;;13018879;22;20023;-82
2022/10/29 17:51:33;;;;;;;9.32;7.53;;;;;;;;;;13001983;22;20060;-81
2022/10/29 17:56:34;;;;;;;11.02;6.75;;;;;;;;;;12999552;22;20019;-81
2022/10/29 18:01:50;;;;;;;10.88;7.55;;;;;;;;;;13019084;22;20010;-83
2022/10/29 18:06:57;;;;;;;13.65;8.77;;;;;;;;;;13025825;22;20012;-82
2022/10/29 18:12:34;;;;;;;12.00;9.77;;;;;;;;;;13035075;22;20002;-80
2022/10/29 18:17:42;;;;;;;10.90;8.73;;;;;;;;;;13047086;22;20022;-81
2022/10/29 18:22:59;;;;;;;12.23;8.65;;;;;;;;;;13009220;22;20062;-90
2022/10/29 18:28:03;;;;;;;11.90;8.18;;;;;;;;;;12984220;22;20085;-89
